Time,TemperatureF,DewpointF,PressureIn,WindDirection,WindDirectionDegrees,WindSpeedMPH,WindSpeedGustMPH,Humidity,HourlyPrecipIn,Conditions,Clouds,dailyrainin,SoftwareType,DateUTC
2013-04-04 00:00:00,36.1,22.8,29.97,WSW,248,3.6,23.1,58,0.00,,SKC,0.00,VWS V14.01,2013-04-04 05:00:00,
2013-04-04 00:20:00,36.7,23.3,29.97,SSW,202,6.7,21.5,58,0.00,,SKC,0.00,VWS V14.01,2013-04-04 05:20:00,
2013-04-04 00:40:00,36.7,22.9,29.97,SSW,202,4.6,18.0,57,0.00,,SKC,0.00,VWS V14.01,2013-04-04 05:40:00,
2013-04-04 01:00:00,36.7,23.3,29.97,WSW,248,8.5,18.4,58,0.00,,SKC,0.00,VWS V14.01,2013-04-04 06:00:00,
2013-04-04 01:20:00,36.9,23.5,29.94,SSE,158,6.2,18.0,58,0.00,,SKC,0.00,VWS V14.01,2013-04-04 06:20:00,
2013-04-04 01:40:00,36.9,23.9,29.94,South,180,6.4,25.5,59,0.00,,SKC,0.00,VWS V14.01,2013-04-04 06:40:00,
2013-04-04 02:00:00,36.9,23.5,29.94,SSW,202,2.8,15.3,58,0.00,,SKC,0.00,VWS V14.01,2013-04-04 07:00:00,
2013-04-04 02:20:00,36.5,23.5,29.94,SSE,158,4.1,18.4,59,0.00,,SKC,0.00,VWS V14.01,2013-04-04 07:20:00,
2013-04-04 02:40:00,36.9,24.3,29.91,SSE,158,3.9,13.7,60,0.00,,SKC,0.00,VWS V14.01,2013-04-04 07:40:00,
2013-04-04 03:00:00,37.4,24.4,29.91,SSW,202,5.7,17.2,59,0.00,,SKC,0.00,VWS V14.01,2013-04-04 08:00:00,
2013-04-04 03:20:00,37.6,24.2,29.91,South,180,9.0,18.4,58,0.00,,SKC,0.00,VWS V14.01,2013-04-04 08:20:00,
2013-04-04 03:40:00,37.6,24.2,29.88,WSW,248,3.9,18.0,58,0.00,,SKC,0.00,VWS V14.01,2013-04-04 08:40:00,
2013-04-04 04:00:00,37.6,24.2,29.91,SSW,202,2.3,23.1,58,0.00,,SKC,0.00,VWS V14.01,2013-04-04 09:00:00,
2013-04-04 04:20:00,37.2,24.2,29.88,SSW,202,4.9,10.2,59,0.00,,SKC,0.00,VWS V14.01,2013-04-04 09:20:00,
2013-04-04 04:40:00,37.4,24.4,29.91,SW,225,1.3,7.4,59,0.00,,SKC,0.00,VWS V14.01,2013-04-04 09:40:00,
2013-04-04 05:00:00,37.6,25.4,29.88,SSW,202,2.8,12.5,61,0.00,,SKC,0.00,VWS V14.01,2013-04-04 10:00:00,
2013-04-04 05:20:00,38.1,25.5,29.88,SW,225,2.6,10.6,60,0.00,,SKC,0.00,VWS V14.01,2013-04-04 10:20:00,
2013-04-04 05:40:00,38.5,25.4,29.91,SSE,158,1.8,13.7,59,0.00,,SKC,0.00,VWS V14.01,2013-04-04 10:40:00,
2013-04-04 06:00:00,38.5,25.4,29.91,SW,225,3.3,7.0,59,0.00,,SKC,0.00,VWS V14.01,2013-04-04 11:00:00,
2013-04-04 06:20:00,38.1,25.5,29.88,SSW,202,1.3,12.5,60,0.00,,SKC,0.00,VWS V14.01,2013-04-04 11:20:00,
2013-04-04 06:40:00,37.9,25.3,29.91,WSW,248,1.5,4.3,60,0.00,,SKC,0.00,VWS V14.01,2013-04-04 11:40:00,
2013-04-04 07:00:00,37.9,25.7,29.91,WSW,248,1.5,5.5,61,0.00,,SKC,0.00,VWS V14.01,2013-04-04 12:00:00,
2013-04-04 07:20:00,38.1,25.9,29.94,SW,225,2.6,4.3,61,0.00,,SKC,0.00,VWS V14.01,2013-04-04 12:20:00,
2013-04-04 07:40:00,38.1,27.0,29.91,WSW,248,2.3,6.3,64,0.00,,SKC,0.00,VWS V14.01,2013-04-04 12:40:00,
2013-04-04 08:00:00,38.7,27.9,29.91,WNW,292,1.5,7.4,65,0.00,,SKC,0.00,VWS V14.01,2013-04-04 13:00:00,
2013-04-04 08:20:00,38.7,27.9,29.94,SSE,158,0.0,10.2,65,0.00,,SKC,0.00,VWS V14.01,2013-04-04 13:20:00,
2013-04-04 08:40:00,39.4,29.0,29.94,SSW,202,1.0,6.3,66,0.00,,SKC,0.00,VWS V14.01,2013-04-04 13:40:00,
2013-04-04 09:00:00,41.0,30.1,29.94,WSW,248,2.3,6.7,65,0.00,,SKC,0.00,VWS V14.01,2013-04-04 14:00:00,
2013-04-04 09:20:00,41.5,29.1,29.94,NW,315,2.6,10.6,61,0.00,,SKC,0.00,VWS V14.01,2013-04-04 14:20:00,
2013-04-04 09:40:00,42.1,29.2,29.94,NW,315,4.6,10.2,60,0.00,,SKC,0.00,VWS V14.01,2013-04-04 14:40:00,
2013-04-04 10:00:00,44.6,29.0,29.94,NW,315,3.1,11.0,54,0.00,,SKC,0.00,VWS V14.01,2013-04-04 15:00:00,
2013-04-04 10:20:00,44.1,26.1,29.97,NNW,338,4.6,11.0,49,0.00,,SKC,0.00,VWS V14.01,2013-04-04 15:20:00,
2013-04-04 10:40:00,44.2,24.3,29.97,NNW,338,5.4,13.3,45,0.00,,SKC,0.00,VWS V14.01,2013-04-04 15:40:00,
2013-04-04 11:00:00,45.1,24.0,29.97,NW,315,4.6,12.1,43,0.00,,SKC,0.00,VWS V14.01,2013-04-04 16:00:00,
2013-04-04 11:20:00,45.1,22.9,29.97,South,180,4.6,10.6,41,0.00,,SKC,0.00,VWS V14.01,2013-04-04 16:20:00,
2013-04-04 11:40:00,45.3,23.0,29.97,NNW,338,3.1,10.6,41,0.00,,SKC,0.00,VWS V14.01,2013-04-04 16:40:00,
2013-04-04 12:00:00,46.6,23.6,29.97,NW,315,6.4,9.8,40,0.00,,SKC,0.00,VWS V14.01,2013-04-04 17:00:00,
2013-04-04 12:20:00,46.4,22.2,29.97,NW,315,3.6,13.3,38,0.00,,SKC,0.00,VWS V14.01,2013-04-04 17:20:00,
2013-04-04 12:40:00,47.3,23.6,29.97,WSW,248,3.3,11.7,39,0.00,,SKC,0.00,VWS V14.01,2013-04-04 17:40:00,
2013-04-04 13:00:00,46.9,22.7,29.97,NNW,338,4.4,16.8,38,0.00,,SKC,0.00,VWS V14.01,2013-04-04 18:00:00,
2013-04-04 13:20:00,48.4,24.0,29.97,NNW,338,5.7,14.1,38,0.00,,SKC,0.00,VWS V14.01,2013-04-04 18:20:00,
2013-04-04 13:40:00,46.6,22.4,29.97,NNW,338,6.7,13.7,38,0.00,,SKC,0.00,VWS V14.01,2013-04-04 18:40:00,
2013-04-04 14:00:00,46.4,22.2,29.97,NNW,338,4.9,11.4,38,0.00,,SKC,0.00,VWS V14.01,2013-04-04 19:00:00,
2013-04-04 14:20:00,46.4,22.2,29.97,WNW,292,4.4,17.2,38,0.00,,SKC,0.00,VWS V14.01,2013-04-04 19:20:00,
2013-04-04 14:40:00,46.2,22.6,29.97,NNW,338,4.4,13.3,39,0.00,,SKC,0.00,VWS V14.01,2013-04-04 19:40:00,
2013-04-04 15:00:00,46.0,22.5,29.97,SSW,202,2.6,14.9,39,0.00,,SKC,0.00,VWS V14.01,2013-04-04 20:00:00,
2013-04-04 15:20:00,46.2,22.6,29.97,SSW,202,2.3,15.3,39,0.00,,SKC,0.00,VWS V14.01,2013-04-04 20:20:00,
2013-04-04 15:40:00,46.4,22.2,29.97,NNW,338,3.3,15.7,38,0.00,,SKC,0.00,VWS V14.01,2013-04-04 20:40:00,
2013-04-04 16:00:00,46.2,22.0,30.00,WNW,292,4.1,11.4,38,0.00,,SKC,0.00,VWS V14.01,2013-04-04 21:00:00,
2013-04-04 16:20:00,45.7,21.5,29.97,West,270,2.3,11.4,38,0.00,,SKC,0.00,VWS V14.01,2013-04-04 21:20:00,
2013-04-04 16:40:00,45.0,19.0,30.00,WNW,292,4.4,10.6,35,0.00,,SKC,0.00,VWS V14.01,2013-04-04 21:40:00,
2013-04-04 17:00:00,44.4,19.1,30.00,SSE,158,4.1,10.6,36,0.00,,SKC,0.00,VWS V14.01,2013-04-04 22:00:00,
2013-04-04 17:20:00,43.9,19.3,30.00,SE,135,3.3,9.8,37,0.00,,SKC,0.00,VWS V14.01,2013-04-04 22:20:00,
2013-04-04 17:40:00,43.3,18.8,30.00,WNW,292,4.6,10.2,37,0.00,,SKC,0.00,VWS V14.01,2013-04-04 22:40:00,
2013-04-04 18:00:00,42.8,19.0,30.00,NNE,22,2.3,13.7,38,0.00,,SKC,0.00,VWS V14.01,2013-04-04 23:00:00,
2013-04-04 18:20:00,42.1,17.7,30.00,NNW,338,1.5,7.4,37,0.00,,SKC,0.00,VWS V14.01,2013-04-04 23:20:00,
2013-04-04 18:40:00,41.4,17.7,30.00,NNW,338,2.3,9.4,38,0.00,,SKC,0.00,VWS V14.01,2013-04-04 23:40:00,
2013-04-04 19:00:00,40.3,17.3,30.00,NNW,338,4.1,7.0,39,0.00,,SKC,0.00,VWS V14.01,2013-04-05 00:00:00,
2013-04-04 19:20:00,38.8,16.0,30.00,ENE,68,1.5,6.3,39,0.00,,SKC,0.00,VWS V14.01,2013-04-05 00:20:00,
2013-04-04 19:40:00,37.6,15.5,30.03,ESE,112,0.0,5.5,40,0.00,,SKC,0.00,VWS V14.01,2013-04-05 00:40:00,
2013-04-04 20:00:00,36.3,14.9,30.03,East,90,0.0,5.1,41,0.00,,SKC,0.00,VWS V14.01,2013-04-05 01:00:00,
2013-04-04 20:20:00,35.4,15.2,30.03,SSE,158,0.0,2.7,43,0.00,,SKC,0.00,VWS V14.01,2013-04-05 01:20:00,
2013-04-04 20:40:00,34.5,14.9,30.03,SSE,158,0.0,0.0,44,0.00,,SKC,0.00,VWS V14.01,2013-04-05 01:40:00,
2013-04-04 21:00:00,33.6,14.6,30.03,SSE,158,0.0,0.0,45,0.00,,SKC,0.00,VWS V14.01,2013-04-05 02:00:00,
2013-04-04 21:20:00,32.9,15.4,30.06,SE,135,0.0,0.0,48,0.00,,SKC,0.00,VWS V14.01,2013-04-05 02:20:00,
2013-04-04 21:40:00,32.2,14.7,30.03,ESE,112,0.0,3.5,48,0.00,,SKC,0.00,VWS V14.01,2013-04-05 02:40:00,
2013-04-04 22:00:00,31.5,14.1,30.06,ESE,112,0.0,5.1,48,0.00,,SKC,0.00,VWS V14.01,2013-04-05 03:00:00,
2013-04-04 22:20:00,30.7,14.8,30.06,ESE,112,0.0,0.0,51,0.00,,SKC,0.00,VWS V14.01,2013-04-05 03:20:00,
2013-04-04 22:40:00,30.4,14.9,30.06,East,90,0.0,2.7,52,0.00,,SKC,0.00,VWS V14.01,2013-04-05 03:40:00,
2013-04-04 23:00:00,30.2,15.1,30.06,SE,135,0.0,3.9,53,0.00,,SKC,0.00,VWS V14.01,2013-04-05 04:00:00,
2013-04-04 23:20:00,30.0,14.5,30.06,ESE,112,0.0,2.3,52,0.00,,SKC,0.00,VWS V14.01,2013-04-05 04:20:00,
2013-04-04 23:40:00,29.5,14.0,30.09,ESE,112,0.0,2.3,52,0.00,,SKC,0.00,VWS V14.01,2013-04-05 04:40:00,